Latest Weather Observations for Coldstream

IDV60901

Issued at 9:41 am EDT Tuesday 23 December 2014 (issued every 10 minutes, with the page automatically refreshed every 10 minutes)

About weather observations | Map of Melbourne area stations | Latest observations for Melbourne area | Other Formats
Station Details ID: 086383 Name: COLDSTREAM Lat: -37.72 Lon: 145.41 Height: 83.0 m
Data from the previous 72 hours. | See also: Recent months at Coldstream
Date/Time
EDT
Tmp

°C
App
Tmp
°C
Dew
Point
°C
Rel
Hum
%
Delta-T

°C
Wind Press
QNH
hPa
Press
MSL
hPa
Rain
since
9 am
mm
Dir
 
Spd
km/h
Gust
km/h
Spd
kts
Gust
kts
23/09:30am 23.4 22.6 16.2 64 4.4 NNW 15 22 8 12 1008.4 1008.2 0.0
23/09:00am 22.7 24.0 18.5 77 2.7 N 9 15 5 8 1008.3 1008.1 2.4
23/08:30am 21.2 24.5 19.1 88 1.3 CALM 0 0 0 0 1008.2 1008.0 2.4
23/08:00am 20.2 23.5 19.0 93 0.8 CALM 0 0 0 0 1008.0 1007.8 2.4
23/07:30am 19.4 22.6 18.9 97 0.3 CALM 0 0 0 0 1007.9 1007.7 2.4
23/07:00am 18.8 20.6 18.3 97 0.3 SE 6 7 3 4 1007.8 1007.6 2.4
23/06:30am 18.6 20.6 17.8 95 0.5 ENE 4 7 2 4 1007.8 1007.6 2.4
23/06:00am 18.8 20.8 17.8 94 0.6 SW 4 13 2 7 1007.8 1007.6 2.4
23/05:30am 19.0 21.1 18.2 95 0.5 WSW 4 11 2 6 1007.6 1007.4 1.8
23/05:00am 18.9 21.6 17.7 93 0.7 CALM 0 0 0 0 1007.0 1006.8 0.6
23/04:30am 19.0 20.4 17.7 92 0.8 ENE 7 13 4 7 1006.8 1006.6 0.6
23/04:00am 19.1 21.9 17.9 93 0.7 CALM 0 0 0 0 1006.6 1006.4 0.4
23/03:30am 19.3 21.6 17.6 90 1.0 E 2 7 1 4 1006.5 1006.3 0.4
23/03:00am 19.6 21.9 17.6 88 1.2 SSE 2 6 1 3 1006.3 1006.1 0.2
23/02:30am 20.1 21.3 16.9 82 1.9 SSE 6 9 3 5 1006.5 1006.3 0.0
23/02:00am 20.5 22.6 18.1 86 1.5 N 4 9 2 5 1006.6 1006.4 0.0
23/01:30am 20.5 22.7 18.4 88 1.3 W 4 13 2 7 1006.4 1006.2 0.0
23/01:00am 20.8 21.1 17.8 83 1.9 E 13 17 7 9 1006.7 1006.5 0.0
23/12:30am 21.1 23.1 18.7 86 1.5 NNW 6 17 3 9 1007.7 1007.5 0.0
23/12:00am 21.0 23.6 18.4 85 1.6 S 2 7 1 4 1007.4 1007.2 0.0
 
Date/Time
EDT
Tmp

°C
App
Tmp
°C
Dew
Point
°C
Rel
Hum
%
Delta-T

°C
Wind Press
QNH
hPa
Press
MSL
hPa
Rain
since
9 am
mm
Dir
 
Spd
km/h
Gust
km/h
Spd
kts
Gust
kts
22/11:30pm 21.6 24.7 18.6 83 1.9 CALM 0 0 0 0 1007.6 1007.4 0.0
22/11:00pm 21.2 22.5 18.4 84 1.8 E 9 13 5 7 1007.9 1007.7 0.0
22/10:30pm 21.5 23.2 18.1 81 2.1 SE 6 9 3 5 1008.2 1008.0 0.0
22/10:00pm 22.5 23.9 17.8 75 2.9 SW 7 11 4 6 1008.1 1007.9 0.0
22/09:30pm 22.6 22.7 17.5 73 3.2 WNW 13 19 7 10 1007.8 1007.6 0.0
22/09:00pm 23.1 24.2 18.0 73 3.2 W 9 20 5 11 1007.0 1006.8 0.0
22/08:30pm 23.9 25.0 18.1 70 3.7 SW 9 19 5 10 1006.8 1006.6 0.0
22/08:00pm 25.1 27.7 20.1 74 3.3 SSE 6 7 3 4 1006.7 1006.5 0.0
22/07:30pm 25.6 29.1 20.4 73 3.4 ESE 2 9 1 5 1006.8 1006.6 0.0
22/07:00pm 26.1 29.4 20.0 69 4.0 NW 2 9 1 5 1006.7 1006.5 0.0
22/06:30pm 27.1 29.3 19.7 64 4.8 SSE 7 11 4 6 1006.3 1006.1 0.0
22/06:00pm 27.2 29.1 19.8 64 4.8 S 9 13 5 7 1006.5 1006.3 0.0
22/05:30pm 27.4 28.8 19.5 62 5.1 S 11 17 6 9 1006.8 1006.6 0.0
22/05:00pm 28.5 29.5 19.4 57 5.9 S 13 17 7 9 1007.3 1007.1 0.0
22/04:30pm 28.9 29.8 19.2 55 6.3 S 13 17 7 9 1007.6 1007.4 0.0
22/04:00pm 29.6 30.2 18.7 52 7.1 SSE 13 17 7 9 1007.9 1007.7 0.0
22/03:30pm 28.9 29.5 18.7 54 6.6 S 13 22 7 12 1008.4 1008.2 0.0
22/03:00pm 28.1 28.3 18.5 56 6.2 SW 15 22 8 12 1009.0 1008.8 0.0
22/02:30pm 30.0 30.4 18.1 49 7.6 WSW 13 20 7 11 1009.2 1009.0 0.0
22/02:00pm 30.1 30.6 17.5 46 8.0 SW 11 19 6 10 1009.6 1009.4 0.0
22/01:30pm 30.1 31.2 17.2 46 8.2 SW 7 17 4 9 1010.3 1010.2 0.0
22/01:00pm 29.3 30.9 17.8 50 7.3 SSW 6 13 3 7 1010.5 1010.4 0.0
22/12:30pm 27.5 29.3 16.5 51 6.8 SE 2 7 1 4 1011.0 1010.9 0.0
22/12:00pm 26.3 28.1 16.5 54 6.1 WSW 2 7 1 4 1011.4 1011.3 0.0
22/11:30am 25.4 26.6 16.0 56 5.8 SE 4 7 2 4 1011.8 1011.7 0.0
22/11:00am 24.0 25.4 15.5 59 5.1 SW 2 7 1 4 1012.3 1012.2 0.0
22/10:30am 22.7 24.5 15.5 64 4.3 CALM 0 6 0 3 1012.5 1012.4 0.0
22/10:00am 21.4 22.5 15.5 69 3.5 WSW 4 9 2 5 1012.7 1012.6 0.0
22/09:30am 20.3 21.6 15.1 72 3.1 SE 2 7 1 4 1013.1 1013.0 0.0
22/09:00am 18.8 20.5 15.3 80 2.1 CALM 0 0 0 0 1013.2 1013.1 0.0
22/08:30am 18.1 18.5 14.8 81 1.9 SW 6 11 3 6 1013.4 1013.3 0.0
22/08:00am 17.4 18.2 14.9 85 1.5 WNW 4 9 2 5 1013.4 1013.3 0.0
22/07:30am 16.5 18.2 15.2 92 0.8 CALM 0 0 0 0 1013.3 1013.2 0.0
22/07:00am 15.4 17.0 14.9 97 0.3 CALM 0 0 0 0 1013.2 1013.1 0.0
22/06:30am 14.4 15.7 14.1 98 0.2 CALM 0 0 0 0 1013.0 1012.9 0.0
22/06:00am 13.4 14.4 13.1 98 0.2 CALM 0 0 0 0 1012.8 1012.7 0.0
22/05:30am 12.9 13.7 12.6 98 0.2 CALM 0 0 0 0 1012.7 1012.6 0.0
22/05:00am 11.0 11.1 10.1 94 0.5 CALM 0 4 0 2 1012.6 1012.5 0.0
22/04:30am 11.6 11.8 10.7 94 0.5 CALM 0 0 0 0 1012.6 1012.5 0.0
22/04:00am 12.1 12.4 11.0 93 0.6 CALM 0 0 0 0 1012.7 1012.6 0.0
22/03:30am 12.8 12.8 11.0 89 0.9 S 2 6 1 3 1012.8 1012.7 0.0
22/03:00am 13.6 14.1 11.5 87 1.1 CALM 0 0 0 0 1012.8 1012.7 0.0
22/02:30am 14.5 15.0 11.6 83 1.6 CALM 0 0 0 0 1013.0 1012.9 0.0
22/02:00am 16.4 17.0 11.8 74 2.5 CALM 0 0 0 0 1013.2 1013.1 0.0
22/01:30am 17.6 17.7 11.6 68 3.3 NNW 2 6 1 3 1013.6 1013.5 0.0
22/01:00am 18.6 17.8 11.7 64 3.8 N 7 9 4 5 1013.7 1013.6 0.0
22/12:30am 19.4 19.9 12.7 65 3.8 SW 2 7 1 4 1013.5 1013.4 0.0
22/12:00am 19.9 19.8 12.2 61 4.3 SSW 4 11 2 6 1013.6 1013.5 0.0
 
Date/Time
EDT
Tmp

°C
App
Tmp
°C
Dew
Point
°C
Rel
Hum
%
Delta-T

°C
Wind Press
QNH
hPa
Press
MSL
hPa
Rain
since
9 am
mm
Dir
 
Spd
km/h
Gust
km/h
Spd
kts
Gust
kts
21/11:30pm 20.4 19.9 11.9 58 4.8 S 6 9 3 5 1013.5 1013.4 0.0
21/11:00pm 22.0 20.9 12.0 53 5.6 S 9 15 5 8 1013.5 1013.4 0.0
21/10:30pm 24.1 22.3 12.1 47 6.9 SW 13 22 7 12 1013.2 1013.1 0.0
21/10:00pm 24.6 22.1 11.2 43 7.6 SSE 15 26 8 14 1012.5 1012.4 0.0
21/09:30pm 24.9 22.2 12.8 47 7.0 SSE 19 26 10 14 1011.9 1011.8 0.0
21/09:00pm 25.5 23.0 13.4 47 7.1 SSE 19 28 10 15 1011.4 1011.3 0.0
21/08:30pm 26.6 24.9 12.6 42 8.2 SSE 13 20 7 11 1011.1 1011.0 0.0
21/08:00pm 28.1 26.3 12.0 36 9.4 SSE 13 20 7 11 1011.1 1011.0 0.0
21/07:30pm 29.0 26.5 11.1 33 10.3 SSE 15 20 8 11 1010.8 1010.7 0.0
21/07:00pm 30.7 28.4 10.6 29 11.6 SE 13 19 7 10 1010.5 1010.4 0.0
21/06:30pm 30.0 28.5 10.5 30 11.1 SE 9 13 5 7 1010.4 1010.3 0.0
21/06:00pm 31.0 29.6 10.9 29 11.6 SE 9 15 5 8 1010.5 1010.4 0.0
21/05:30pm 31.0 28.7 10.4 28 11.8 SE 13 19 7 10 1010.8 1010.7 0.0
21/05:00pm 31.9 30.6 10.0 26 12.5 N 7 11 4 6 1011.0 1010.9 0.0
21/04:30pm 32.0 30.4 10.1 26 12.6 ESE 9 19 5 10 1011.2 1011.1 0.0
21/04:00pm 32.2 31.1 10.8 27 12.4 NE 7 11 4 6 1011.4 1011.3 0.0
21/03:30pm 31.0 29.3 9.8 27 12.0 N 9 15 5 8 1011.8 1011.7 0.0
21/03:00pm 31.5 29.5 10.2 27 12.2 SE 11 15 6 8 1012.1 1012.0 0.0
21/02:30pm 31.2 28.6 9.4 26 12.3 SSW 13 22 7 12 1012.5 1012.4 0.0
21/02:00pm 30.5 29.0 10.5 29 11.5 N 9 15 5 8 1012.8 1012.7 0.0
21/01:30pm 30.0 28.9 10.0 29 11.3 S 6 13 3 7 1013.3 1013.2 0.0
21/01:00pm 29.4 27.8 11.5 33 10.4 SW 11 20 6 11 1013.6 1013.5 0.0
21/12:30pm 29.4 28.3 11.9 34 10.2 SSE 9 17 5 9 1013.7 1013.6 0.0
21/12:00pm 29.7 29.5 13.0 35 9.9 NE 6 13 3 7 1013.9 1013.8 0.0
21/11:30am 28.0 27.5 12.0 37 9.3 N 6 15 3 8 1013.9 1013.8 0.0
21/11:00am 26.5 25.9 12.2 41 8.3 N 7 13 4 7 1014.1 1013.9 0.0
21/10:30am 24.6 24.1 12.5 46 7.0 ENE 7 13 4 7 1014.4 1014.2 0.0
21/10:00am 23.1 21.9 11.5 48 6.5 E 9 13 5 7 1014.7 1014.5 0.0
21/09:30am 20.6 21.1 12.8 61 4.4 NE 2 6 1 3 1015.0 1014.8 0.0
21/09:00am 18.3 17.7 12.3 68 3.3 E 7 9 4 5 1015.2 1015.0 0.0
21/08:30am 15.1 15.2 12.6 85 1.4 NNE 4 7 2 4 1015.3 1015.1 0.0
21/08:00am 13.0 13.9 12.8 99 0.1 CALM 0 0 0 0 1015.7 1015.5 0.0
21/07:30am 11.2 11.5 11.0 99 0.1 CALM 0 0 0 0 1015.9 1015.7 0.0
21/07:00am 9.4 9.3 9.3 99 0.0 CALM 0 0 0 0 1015.8 1015.6 0.0
21/06:30am 7.4 5.6 7.3 99 0.0 N 6 7 3 4 1015.6 1015.4 0.0
21/06:00am 6.8 6.0 6.7 99 0.0 CALM 0 0 0 0 1015.0 1014.8 0.0
21/05:30am 6.7 5.9 6.6 99 0.0 CALM 0 0 0 0 1014.6 1014.4 0.0
21/05:00am 6.0 5.0 5.7 98 0.1 CALM 0 0 0 0 1014.4 1014.2 0.0
21/04:30am 5.8 4.8 5.4 97 0.2 CALM 0 0 0 0 1014.6 1014.4 0.0
21/04:00am 6.9 6.1 6.5 97 0.2 CALM 0 0 0 0 1014.9 1014.7 0.0
21/03:30am 7.4 6.7 7.0 97 0.2 CALM 0 0 0 0 1015.2 1015.0 0.0
21/03:00am 7.0 6.2 6.3 95 0.3 CALM 0 0 0 0 1015.5 1015.3 0.0
21/02:30am 7.6 6.1 7.0 96 0.3 SSW 4 7 2 4 1015.8 1015.6 0.0
21/02:00am 8.5 8.0 7.9 96 0.3 CALM 0 0 0 0 1016.1 1015.9 0.0
21/01:30am 8.4 7.5 7.6 95 0.4 SSW 2 7 1 4 1016.5 1016.3 0.0
21/01:00am 9.6 9.3 8.8 95 0.4 CALM 0 0 0 0 1016.9 1016.7 0.0
21/12:30am 10.3 10.1 9.2 93 0.5 CALM 0 0 0 0 1017.2 1017.0 0.0
21/12:00am 10.8 10.6 9.2 90 0.8 CALM 0 0 0 0 1017.3 1017.1 0.0
 
Date/Time
EDT
Tmp

°C
App
Tmp
°C
Dew
Point
°C
Rel
Hum
%
Delta-T

°C
Wind Press
QNH
hPa
Press
MSL
hPa
Rain
since
9 am
mm
Dir
 
Spd
km/h
Gust
km/h
Spd
kts
Gust
kts
20/11:30pm 12.5 12.7 10.6 88 1.0 CALM 0 0 0 0 1017.5 1017.3 0.0
20/11:00pm 13.9 14.1 10.5 80 1.8 CALM 0 0 0 0 1017.6 1017.4 0.0
20/10:30pm 15.7 14.5 11.7 77 2.2 S 9 13 5 7 1017.5 1017.3 0.0
20/10:00pm 16.3 14.4 11.9 75 2.4 SSE 13 17 7 9 1017.5 1017.3 0.0
20/09:30pm 17.1 15.3 12.2 73 2.7 SSE 13 20 7 11 1017.1 1016.9 0.0
20/09:00pm 17.8 16.0 12.0 69 3.2 SSE 13 20 7 11 1016.9 1016.7 0.0
20/08:30pm 19.4 17.5 11.7 61 4.3 SSE 13 24 7 13 1016.9 1016.7 0.0
20/08:00pm 20.7 17.8 11.1 54 5.3 SSE 17 24 9 13 1016.6 1016.4 0.0
20/07:30pm 22.0 19.9 11.1 50 6.1 SSE 13 19 7 10 1016.4 1016.2 0.0
20/07:00pm 23.0 20.3 9.0 41 7.5 SSE 13 20 7 11 1016.1 1015.9 0.0
20/06:30pm 23.6 21.0 9.2 40 7.8 SE 13 19 7 10 1015.9 1015.7 0.0
20/06:00pm 23.7 21.7 10.0 42 7.5 SSE 11 19 6 10 1015.8 1015.6 0.0
20/05:30pm 23.7 20.6 8.9 39 8.0 SE 15 26 8 14 1016.0 1015.8 0.0
20/05:00pm 23.3 20.6 7.4 36 8.3 S 11 17 6 9 1016.2 1016.0 0.0
20/04:30pm 24.2 21.8 10.1 41 7.8 SSW 13 28 7 15 1016.4 1016.2 0.0
20/04:00pm 23.8 18.7 6.1 32 9.1 SW 22 32 12 17 1016.8 1016.6 0.0
20/03:30pm 23.8 19.8 8.2 37 8.3 WSW 19 26 10 14 1017.2 1017.0 0.0
20/03:00pm 23.3 19.6 9.3 41 7.6 WSW 19 30 10 16 1017.4 1017.2 0.0
20/02:30pm 23.4 20.9 9.8 42 7.4 WSW 13 22 7 12 1017.8 1017.6 0.0
20/02:00pm 22.0 20.2 9.5 45 6.7 SW 9 17 5 9 1018.0 1017.8 0.0
20/01:30pm 21.1 18.5 9.4 47 6.3 WNW 13 20 7 11 1018.2 1018.0 0.0
20/01:00pm 20.4 19.1 9.9 51 5.6 WSW 7 17 4 9 1018.6 1018.4 0.0
20/12:30pm 19.7 18.6 10.1 54 5.2 NNW 6 13 3 7 1018.9 1018.7 0.0
20/12:00pm 19.1 17.8 10.1 56 4.8 SSW 7 17 4 9 1019.2 1019.0 0.0
20/11:30am 18.3 17.8 10.7 61 4.1 SE 4 11 2 6 1019.4 1019.2 0.0
20/11:00am 17.4 16.8 10.5 64 3.7 N 4 9 2 5 1019.6 1019.4 0.0
20/10:30am 16.5 15.5 10.4 67 3.2 NNW 6 11 3 6 1019.8 1019.6 0.0
20/10:00am 16.2 16.0 10.5 69 3.0 NNW 2 6 1 3 1019.8 1019.6 0.0

Latest Capital City Observations: Canberra | Sydney | Melbourne | Brisbane | Adelaide | Perth | Hobart | Darwin

Other Formats:

Comma delimited format used in spreadsheet applications
http://www.bom.gov.au/fwo/IDV60901/IDV60901.94864.axf

JavaScript Object Notation format (JSON) in row-major order
http://www.bom.gov.au/fwo/IDV60901/IDV60901.94864.json